createdAt,value
2019-04-14T00:02:41.043Z,7.57
2019-04-14T00:05:25.660Z,7.17
2019-04-14T00:08:13.317Z,7.10
2019-04-14T00:10:52.978Z,5.93
2019-04-14T00:13:47.752Z,8.43
2019-04-14T00:16:29.494Z,6.90
2019-04-14T00:19:08.753Z,7.07
2019-04-14T00:21:41.875Z,6.47
2019-04-14T00:24:21.250Z,7.03
2019-04-14T00:26:59.541Z,7.33
2019-04-14T00:29:47.943Z,7.50
2019-04-14T00:32:27.563Z,7.23
2019-04-14T00:35:18.801Z,7.00
2019-04-14T00:38:21.800Z,7.50
2019-04-14T00:41:15.805Z,7.43
2019-04-14T00:44:13.101Z,7.27
2019-04-14T00:46:56.078Z,6.50
2019-04-14T00:49:29.000Z,6.07
2019-04-14T00:52:06.158Z,6.83
2019-04-14T00:57:31.154Z,6.83
2019-04-14T01:00:10.381Z,7.50
2019-04-14T01:02:46.985Z,6.77
2019-04-14T01:05:37.493Z,6.83
2019-04-14T01:08:20.517Z,7.13
2019-04-14T01:11:03.027Z,7.97
2019-04-14T01:13:43.937Z,8.43
2019-04-14T01:16:23.848Z,7.33
2019-04-14T01:19:05.414Z,7.27
2019-04-14T01:21:50.208Z,7.30
2019-04-14T01:24:33.651Z,6.93
2019-04-14T01:27:14.588Z,6.90
2019-04-14T01:30:02.930Z,6.50
2019-04-14T01:32:50.095Z,7.60
2019-04-14T01:35:35.727Z,6.87
2019-04-14T01:38:10.269Z,7.37
2019-04-14T01:41:22.420Z,7.83
2019-04-14T01:43:58.233Z,7.20
2019-04-14T01:46:35.892Z,7.47
2019-04-14T01:49:20.361Z,7.00
2019-04-14T01:52:19.081Z,8.07
2019-04-14T01:55:20.048Z,6.63
2019-04-14T01:58:16.950Z,7.03
2019-04-14T02:01:31.065Z,8.30
2019-04-14T02:04:14.463Z,7.10
2019-04-14T02:06:46.234Z,7.87
2019-04-14T02:09:31.692Z,6.37
2019-04-14T02:12:17.014Z,6.77
2019-04-14T02:15:06.888Z,5.97
2019-04-14T02:17:43.889Z,6.37
2019-04-14T02:20:42.650Z,7.77
2019-04-14T02:23:30.672Z,6.47
2019-04-14T02:26:13.866Z,6.47
2019-04-14T02:28:50.889Z,6.73
2019-04-14T02:31:43.352Z,6.60
2019-04-14T02:34:36.222Z,7.63
2019-04-14T02:39:39.121Z,7.33
2019-04-14T02:45:00.354Z,6.60
2019-04-14T02:47:53.888Z,7.00
2019-04-14T02:50:10.847Z,7.23
2019-04-14T02:53:01.667Z,7.73
2019-04-14T02:56:02.013Z,7.13
2019-04-14T02:58:41.529Z,7.10
2019-04-14T03:01:42.205Z,7.17
2019-04-14T03:03:56.376Z,6.50
2019-04-14T03:09:30.582Z,6.40
2019-04-14T03:12:01.633Z,6.77
2019-04-14T03:14:45.503Z,6.87
2019-04-14T03:17:44.387Z,6.57
2019-04-14T03:20:40.070Z,7.40
2019-04-14T03:23:30.666Z,7.00
2019-04-14T03:26:15.323Z,7.23
2019-04-14T03:28:56.463Z,6.43
2019-04-14T03:32:00.102Z,7.53
2019-04-14T03:40:01.171Z,7.40
2019-04-14T03:42:49.015Z,6.13
2019-04-14T03:45:30.109Z,7.83
2019-04-14T03:48:22.411Z,6.47
2019-04-14T03:50:39.408Z,5.60
2019-04-14T03:53:36.088Z,6.73
2019-04-14T03:56:14.384Z,7.73
2019-04-14T03:58:48.605Z,6.77
2019-04-14T04:01:32.319Z,6.27
2019-04-14T04:04:18.368Z,6.60
2019-04-14T04:06:59.517Z,6.33
2019-04-14T04:09:43.230Z,7.30
2019-04-14T04:12:22.847Z,6.40
2019-04-14T04:15:01.947Z,6.73
2019-04-14T04:17:45.147Z,7.63
2019-04-14T04:20:33.442Z,6.17
2019-04-14T04:23:47.451Z,6.20
2019-04-14T04:26:45.400Z,6.87
2019-04-14T04:29:37.851Z,5.37
2019-04-14T04:32:49.827Z,6.80
2019-04-14T04:35:34.709Z,6.57
2019-04-14T04:38:35.585Z,7.07
2019-04-14T04:41:14.702Z,6.00
2019-04-14T04:43:53.815Z,6.03
2019-04-14T04:46:37.045Z,6.53
2019-04-14T04:49:11.648Z,7.10
2019-04-14T04:51:42.476Z,5.87
2019-04-14T04:54:18.878Z,6.30
2019-04-14T04:56:53.747Z,6.33
2019-04-14T04:59:29.952Z,5.50
2019-04-14T05:02:13.446Z,6.20
2019-04-14T05:04:43.919Z,5.83
2019-04-14T05:07:20.866Z,5.63
2019-04-14T05:10:39.288Z,6.33
2019-04-14T05:13:21.110Z,6.27
2019-04-14T05:16:06.322Z,6.30
2019-04-14T05:19:13.964Z,5.93
2019-04-14T05:21:45.250Z,6.23
2019-04-14T05:24:35.147Z,5.57
2019-04-14T05:27:30.146Z,6.20
2019-04-14T05:30:11.525Z,6.00
2019-04-14T05:32:54.645Z,6.23
2019-04-14T05:35:35.845Z,6.33
2019-04-14T05:38:16.922Z,5.87
2019-04-14T05:40:51.922Z,6.67
2019-04-14T05:43:41.575Z,5.97
2019-04-14T05:46:16.355Z,6.43
2019-04-14T05:48:56.166Z,5.77
2019-04-14T05:51:43.888Z,5.33
2019-04-14T05:54:20.931Z,6.27
2019-04-14T05:57:08.981Z,6.47
2019-04-14T05:59:49.019Z,6.10
2019-04-14T06:02:44.678Z,5.40
2019-04-14T06:05:36.160Z,5.97
2019-04-14T06:08:12.784Z,5.10
2019-04-14T06:10:56.732Z,5.03
2019-04-14T06:13:29.429Z,5.80
2019-04-14T06:16:16.051Z,5.83
2019-04-14T06:18:54.385Z,5.47
2019-04-14T06:21:25.554Z,5.17
2019-04-14T06:24:17.886Z,5.37
2019-04-14T06:27:02.867Z,4.83
2019-04-14T06:29:45.796Z,6.40
2019-04-14T06:32:35.892Z,5.97
2019-04-14T06:35:48.798Z,5.17
2019-04-14T06:38:29.582Z,5.10
2019-04-14T06:41:12.626Z,5.70
2019-04-14T06:43:57.121Z,5.50
2019-04-14T06:46:39.514Z,5.23
2019-04-14T06:49:19.983Z,5.70
2019-04-14T06:51:57.108Z,6.27
2019-04-14T06:54:37.026Z,5.77
2019-04-14T06:57:19.849Z,4.80
2019-04-14T06:59:58.309Z,4.57
2019-04-14T07:02:49.432Z,5.60
2019-04-14T07:05:25.277Z,5.47
2019-04-14T07:08:00.611Z,5.13
2019-04-14T07:10:34.815Z,4.73
2019-04-14T07:13:19.383Z,5.37
2019-04-14T07:16:00.424Z,4.97
2019-04-14T07:18:45.202Z,4.30
2019-04-14T07:21:36.496Z,4.90
2019-04-14T07:24:12.962Z,5.00
2019-04-14T07:27:29.869Z,6.47
2019-04-14T07:30:13.946Z,5.20
2019-04-14T07:33:07.746Z,5.47
2019-04-14T07:36:17.294Z,5.50
2019-04-14T07:39:12.519Z,4.20
2019-04-14T07:42:13.538Z,5.33
2019-04-14T07:45:24.412Z,4.53
2019-04-14T07:48:17.066Z,4.53
2019-04-14T07:51:02.425Z,5.20
2019-04-14T07:54:02.731Z,4.90
2019-04-14T07:57:11.458Z,5.13
2019-04-14T08:00:13.234Z,4.27
2019-04-14T08:03:04.935Z,4.60
2019-04-14T08:05:39.495Z,5.10
2019-04-14T08:08:12.482Z,5.07
2019-04-14T08:10:48.221Z,5.00
2019-04-14T08:13:23.268Z,4.63
2019-04-14T08:15:53.791Z,4.47
2019-04-14T08:18:24.974Z,5.00
2019-04-14T08:20:58.691Z,5.03
2019-04-14T08:23:30.230Z,5.40
2019-04-14T08:26:01.942Z,5.00
2019-04-14T08:28:35.570Z,4.53
2019-04-14T08:31:05.837Z,4.87
2019-04-14T08:33:42.022Z,5.57
2019-04-14T08:36:24.967Z,5.43
2019-04-14T08:39:01.498Z,5.07
2019-04-14T08:41:39.779Z,12.10
2019-04-14T08:44:18.787Z,11.03
2019-04-14T08:47:16.388Z,9.33
2019-04-14T08:49:52.283Z,11.13
2019-04-14T08:52:51.168Z,8.27
2019-04-14T08:55:48.032Z,9.97
2019-04-14T08:58:27.624Z,9.23
2019-04-14T09:01:11.823Z,9.83
2019-04-14T09:04:03.824Z,9.53
2019-04-14T09:06:51.758Z,10.33
2019-04-14T09:09:54.777Z,11.90
2019-04-14T09:12:32.042Z,10.07
2019-04-14T09:15:04.253Z,11.27
2019-04-14T09:17:38.241Z,13.33
2019-04-14T09:20:16.239Z,13.27
2019-04-14T09:22:51.069Z,13.27
2019-04-14T09:25:25.594Z,12.27
2019-04-14T09:27:55.978Z,10.87
2019-04-14T09:30:26.889Z,11.47
2019-04-14T09:33:02.599Z,11.93
2019-04-14T09:35:34.484Z,11.50
2019-04-14T09:38:05.777Z,9.23
2019-04-14T09:40:36.786Z,11.13
2019-04-14T09:43:11.282Z,12.73
2019-04-14T09:45:43.344Z,14.53
2019-04-14T09:48:16.130Z,10.03
2019-04-14T09:50:48.276Z,11.97
2019-04-14T09:53:24.301Z,11.90
2019-04-14T09:55:59.858Z,9.53
2019-04-14T09:58:30.557Z,10.03
2019-04-14T10:01:01.223Z,10.03
2019-04-14T10:03:32.267Z,10.20
2019-04-14T10:06:04.884Z,11.20
2019-04-14T10:08:42.274Z,10.47
2019-04-14T10:11:15.113Z,11.20
2019-04-14T10:13:45.793Z,9.70
2019-04-14T10:16:18.221Z,12.20
2019-04-14T10:18:49.366Z,11.93
2019-04-14T10:21:19.999Z,10.07
2019-04-14T10:23:52.235Z,8.10
2019-04-14T10:26:24.802Z,8.37
2019-04-14T10:28:56.035Z,10.13
2019-04-14T10:31:28.541Z,8.90
2019-04-14T10:33:59.554Z,8.57
2019-04-14T10:36:34.112Z,10.73
2019-04-14T10:39:07.399Z,8.10
2019-04-14T10:41:37.982Z,6.80
2019-04-14T10:44:12.007Z,11.17
2019-04-14T10:46:42.117Z,8.73
2019-04-14T10:49:13.239Z,10.33
2019-04-14T10:51:47.834Z,10.53
2019-04-14T10:54:21.595Z,8.73
2019-04-14T10:56:53.998Z,8.90
2019-04-14T10:59:26.953Z,7.63
2019-04-14T11:01:59.496Z,9.30
2019-04-14T11:04:32.963Z,6.87
2019-04-14T11:07:12.510Z,8.10
2019-04-14T11:09:43.539Z,10.03
2019-04-14T11:12:17.352Z,6.67
2019-04-14T11:14:50.716Z,10.33
2019-04-14T11:17:21.898Z,6.97
2019-04-14T11:19:54.870Z,10.03
2019-04-14T11:22:25.913Z,7.37
2019-04-14T11:24:57.234Z,6.70
2019-04-14T11:27:32.471Z,6.77
2019-04-14T11:30:07.582Z,8.07
2019-04-14T11:33:06.721Z,6.93
2019-04-14T11:35:59.253Z,8.17
2019-04-14T11:38:38.705Z,8.60
2019-04-14T11:41:13.861Z,7.53
2019-04-14T11:43:44.984Z,12.50
2019-04-14T11:46:18.201Z,6.30
2019-04-14T11:48:52.177Z,5.30
2019-04-14T11:51:31.993Z,6.50
2019-04-14T11:54:02.227Z,7.13
2019-04-14T11:56:34.613Z,7.67
2019-04-14T11:59:04.925Z,8.33
2019-04-14T12:01:49.150Z,7.43
2019-04-14T12:04:40.275Z,6.13
2019-04-14T12:07:32.871Z,7.50
2019-04-14T12:10:13.520Z,8.70
2019-04-14T12:12:46.316Z,6.17
2019-04-14T12:15:20.794Z,6.87
2019-04-14T12:17:51.674Z,6.13
2019-04-14T12:20:23.641Z,7.87
2019-04-14T12:22:56.202Z,5.97
2019-04-14T12:25:31.315Z,7.50
2019-04-14T12:28:06.976Z,5.37
2019-04-14T12:30:37.770Z,7.80
2019-04-14T12:33:12.264Z,7.53
2019-04-14T12:35:44.509Z,5.10
2019-04-14T12:38:20.171Z,6.63
2019-04-14T12:40:57.768Z,7.07
2019-04-14T12:43:50.094Z,7.03
2019-04-14T12:46:46.161Z,7.93
2019-04-14T12:49:32.452Z,5.73
2019-04-14T12:52:27.922Z,5.20
2019-04-14T12:54:59.045Z,7.40
2019-04-14T12:57:46.486Z,5.93
2019-04-14T13:00:37.011Z,7.40
2019-04-14T13:03:24.692Z,10.40
2019-04-14T13:05:55.784Z,5.57
2019-04-14T13:08:26.168Z,7.80
2019-04-14T13:11:01.476Z,6.47
2019-04-14T13:13:36.382Z,5.93
2019-04-14T13:16:08.958Z,6.03
2019-04-14T13:18:39.353Z,4.90
2019-04-14T13:21:12.333Z,6.23
2019-04-14T13:23:42.666Z,5.40
2019-04-14T13:26:15.754Z,5.93
2019-04-14T13:28:46.009Z,6.77
2019-04-14T13:31:17.354Z,5.97
2019-04-14T13:33:51.801Z,5.13
2019-04-14T13:36:22.774Z,4.63
2019-04-14T13:38:55.579Z,4.93
2019-04-14T13:41:28.664Z,5.07
2019-04-14T13:44:00.222Z,7.30
2019-04-14T13:46:31.364Z,4.40
2019-04-14T13:49:02.193Z,4.37
2019-04-14T13:51:37.565Z,5.70
2019-04-14T13:54:07.952Z,5.27
2019-04-14T13:56:41.232Z,5.40
2019-04-14T13:59:16.890Z,6.77
2019-04-14T14:01:48.040Z,4.47
2019-04-14T14:04:18.742Z,4.93
2019-04-14T14:06:51.182Z,4.10
2019-04-14T14:09:21.574Z,4.40
2019-04-14T14:12:09.074Z,5.80
2019-04-14T14:15:04.074Z,4.80
2019-04-14T14:17:45.383Z,5.27
2019-04-14T14:20:47.464Z,4.30
2019-04-14T14:23:36.030Z,4.60
2019-04-14T14:26:14.176Z,4.83
2019-04-14T14:28:47.915Z,5.03
2019-04-14T14:31:22.507Z,4.40
2019-04-14T14:33:53.234Z,3.60
2019-04-14T14:36:24.054Z,5.40
2019-04-14T14:38:59.190Z,6.33
2019-04-14T14:41:33.562Z,4.20
2019-04-14T14:44:04.923Z,6.07
2019-04-14T14:47:10.025Z,4.80
2019-04-14T14:50:00.881Z,5.07
2019-04-14T14:52:33.687Z,4.17
2019-04-14T14:55:06.795Z,6.83
2019-04-14T14:57:37.178Z,5.10
2019-04-14T15:00:25.447Z,5.50
2019-04-14T15:02:57.707Z,3.80
2019-04-14T15:05:31.749Z,4.03
2019-04-14T15:08:02.248Z,4.60
2019-04-14T15:10:35.459Z,3.83
2019-04-14T15:13:11.741Z,6.67
2019-04-14T15:15:42.991Z,4.50
2019-04-14T15:18:14.406Z,6.67
2019-04-14T15:20:50.828Z,5.07
2019-04-14T15:23:25.353Z,6.67
2019-04-14T15:25:55.825Z,4.77
2019-04-14T15:28:27.974Z,4.70
2019-04-14T15:31:00.054Z,4.87
2019-04-14T15:33:35.802Z,4.83
2019-04-14T15:36:07.933Z,4.97
2019-04-14T15:38:40.986Z,3.90
2019-04-14T15:41:12.285Z,5.40
2019-04-14T15:43:44.477Z,5.43
2019-04-14T15:46:15.921Z,3.90
2019-04-14T15:48:50.359Z,4.57
2019-04-14T15:51:21.391Z,7.17
2019-04-14T15:53:51.768Z,5.00
2019-04-14T15:56:47.595Z,6.73
2019-04-14T15:59:42.696Z,4.40
2019-04-14T16:02:22.344Z,6.23
2019-04-14T16:05:32.359Z,4.97
2019-04-14T16:08:22.739Z,5.87
2019-04-14T16:11:13.898Z,6.17
2019-04-14T16:14:04.945Z,3.80
2019-04-14T16:16:58.422Z,5.80
2019-04-14T16:19:34.185Z,5.27
2019-04-14T16:22:04.585Z,5.33
2019-04-14T16:24:39.905Z,4.33
2019-04-14T16:27:28.778Z,5.17
2019-04-14T16:30:19.308Z,4.70
2019-04-14T16:33:12.245Z,4.03
2019-04-14T16:35:42.894Z,5.37
2019-04-14T16:38:13.331Z,4.83
2019-04-14T16:40:44.480Z,5.37
2019-04-14T16:43:17.210Z,3.70
2019-04-14T16:45:48.471Z,4.87
2019-04-14T16:48:20.790Z,6.87
2019-04-14T16:50:54.621Z,5.13
2019-04-14T16:53:30.013Z,4.60
2019-04-14T16:56:29.169Z,4.10
2019-04-14T16:59:13.018Z,4.70
2019-04-14T17:01:47.394Z,8.60
2019-04-14T17:04:21.299Z,4.30
2019-04-14T17:06:53.681Z,6.50
2019-04-14T17:09:26.662Z,6.77
2019-04-14T17:12:00.396Z,3.40
2019-04-14T17:14:43.895Z,4.53
2019-04-14T17:17:47.382Z,3.73
2019-04-14T17:20:44.334Z,3.50
2019-04-14T17:23:43.442Z,4.33
2019-04-14T17:26:25.301Z,5.23
2019-04-14T17:29:10.989Z,4.50
2019-04-14T17:32:11.759Z,5.03
2019-04-14T17:35:07.963Z,5.23
2019-04-14T17:37:50.604Z,8.20
2019-04-14T17:40:46.412Z,4.07
2019-04-14T17:43:22.542Z,5.20
2019-04-14T17:46:08.314Z,5.27
2019-04-14T17:48:57.930Z,5.57
2019-04-14T17:51:50.688Z,5.37
2019-04-14T17:54:43.103Z,5.07
2019-04-14T17:57:51.033Z,4.77
2019-04-14T18:00:40.896Z,6.50
2019-04-14T18:03:29.175Z,5.03
2019-04-14T18:06:13.864Z,4.67
2019-04-14T18:09:06.915Z,4.63
2019-04-14T18:11:56.076Z,6.97
2019-04-14T18:14:45.950Z,7.77
2019-04-14T18:17:36.689Z,5.73
2019-04-14T18:20:13.113Z,4.93
2019-04-14T18:22:47.757Z,7.23
2019-04-14T18:25:20.389Z,5.97
2019-04-14T18:28:10.717Z,7.50
2019-04-14T18:30:47.846Z,5.40
2019-04-14T18:33:27.558Z,7.97
2019-04-14T18:36:08.237Z,7.60
2019-04-14T18:39:08.790Z,6.13
2019-04-14T18:41:50.012Z,6.27
2019-04-14T18:44:31.301Z,5.73
2019-04-14T18:47:13.729Z,5.83
2019-04-14T18:50:06.048Z,7.37
2019-04-14T18:52:51.875Z,5.87
2019-04-14T18:55:43.906Z,6.27
2019-04-14T18:58:39.693Z,7.50
2019-04-14T19:01:14.752Z,8.63
2019-04-14T19:03:48.720Z,8.10
2019-04-14T19:06:19.787Z,8.03
2019-04-14T19:08:53.639Z,7.47
2019-04-14T19:11:49.838Z,8.00
2019-04-14T19:14:31.106Z,7.20
2019-04-14T19:17:07.668Z,8.13
2019-04-14T19:19:41.374Z,7.43
2019-04-14T19:22:15.286Z,9.17
2019-04-14T19:24:49.336Z,8.20
2019-04-14T19:27:22.675Z,8.30
2019-04-14T19:29:55.737Z,7.67
2019-04-14T19:32:27.747Z,8.80
2019-04-14T19:35:02.676Z,7.80
2019-04-14T19:37:33.653Z,8.03
2019-04-14T19:40:05.743Z,9.63
2019-04-14T19:42:39.588Z,7.73
2019-04-14T19:45:16.361Z,9.37
2019-04-14T19:47:47.403Z,9.77
2019-04-14T19:50:20.296Z,9.57
2019-04-14T19:52:51.848Z,8.47
2019-04-14T19:55:25.237Z,8.63
2019-04-14T19:57:56.949Z,7.67
2019-04-14T20:00:30.197Z,8.10
2019-04-14T20:03:00.868Z,9.10
2019-04-14T20:05:34.658Z,9.67
2019-04-14T20:08:06.337Z,8.47
2019-04-14T20:10:37.052Z,10.30
2019-04-14T20:13:09.267Z,9.67
2019-04-14T20:15:59.302Z,9.43
2019-04-14T20:19:10.304Z,9.27
2019-04-14T20:21:58.159Z,9.40
2019-04-14T20:24:35.674Z,7.90
2019-04-14T20:27:47.260Z,8.80
2019-04-14T20:30:29.096Z,8.57
2019-04-14T20:33:00.263Z,8.60
2019-04-14T20:35:31.555Z,8.17
2019-04-14T20:38:02.614Z,8.07
2019-04-14T20:40:33.753Z,9.07
2019-04-14T20:43:06.009Z,8.63
2019-04-14T20:45:40.379Z,8.17
2019-04-14T20:48:12.179Z,7.57
2019-04-14T20:50:50.573Z,9.07
2019-04-14T20:53:25.249Z,8.17
2019-04-14T20:56:02.788Z,9.60
2019-04-14T20:58:36.403Z,9.40
2019-04-14T21:01:09.189Z,8.60
2019-04-14T21:03:57.480Z,8.10
2019-04-14T21:06:56.325Z,8.47
2019-04-14T21:09:37.106Z,10.07
2019-04-14T21:12:22.724Z,9.03
2019-04-14T21:15:05.498Z,8.67
2019-04-14T21:17:59.070Z,8.83
2019-04-14T21:20:56.077Z,8.17
2019-04-14T21:23:57.843Z,7.87
2019-04-14T21:26:51.910Z,11.57
2019-04-14T21:29:35.303Z,9.50
2019-04-14T21:32:13.505Z,7.37
2019-04-14T21:35:07.081Z,7.87
2019-04-14T21:38:01.303Z,8.13
2019-04-14T21:40:54.349Z,9.67
2019-04-14T21:43:25.717Z,7.40
2019-04-14T21:45:58.535Z,7.90
2019-04-14T21:48:32.426Z,7.97
2019-04-14T21:51:03.422Z,7.97
2019-04-14T21:53:35.493Z,7.50
2019-04-14T21:56:13.190Z,7.63
2019-04-14T21:58:50.078Z,7.10
2019-04-14T22:01:54.709Z,7.87
2019-04-14T22:04:51.725Z,8.17
2019-04-14T22:07:34.518Z,8.10
2019-04-14T22:10:40.822Z,8.40
2019-04-14T22:13:11.526Z,8.97
2019-04-14T22:15:46.823Z,7.70
2019-04-14T22:18:22.150Z,7.53
2019-04-14T22:20:54.845Z,7.37
2019-04-14T22:23:28.273Z,7.67
2019-04-14T22:26:03.122Z,6.43
2019-04-14T22:28:36.451Z,7.23
2019-04-14T22:31:07.561Z,7.37
2019-04-14T22:33:38.061Z,7.60
2019-04-14T22:36:08.581Z,7.70
2019-04-14T22:38:39.024Z,7.30
2019-04-14T22:41:10.285Z,7.77
2019-04-14T22:43:42.008Z,6.43
2019-04-14T22:46:12.665Z,6.93
2019-04-14T22:48:43.375Z,7.83
2019-04-14T22:51:14.028Z,8.40
2019-04-14T22:53:44.795Z,8.57
2019-04-14T22:56:17.438Z,8.80
2019-04-14T22:58:50.449Z,7.23
2019-04-14T23:01:24.689Z,8.07
2019-04-14T23:04:21.905Z,7.50
2019-04-14T23:07:11.565Z,8.33
2019-04-14T23:09:52.989Z,6.43
2019-04-14T23:12:48.186Z,7.80
2019-04-14T23:15:39.080Z,7.30
2019-04-14T23:18:25.713Z,7.17
2019-04-14T23:21:24.626Z,6.97
2019-04-14T23:24:16.932Z,7.83
2019-04-14T23:26:52.754Z,7.37
2019-04-14T23:29:23.819Z,7.80
2019-04-14T23:31:57.291Z,7.87
2019-04-14T23:34:28.573Z,6.10
2019-04-14T23:36:59.404Z,7.43
2019-04-14T23:39:31.754Z,7.23
2019-04-14T23:42:02.689Z,8.17
2019-04-14T23:44:33.234Z,8.37
2019-04-14T23:47:05.549Z,7.53
2019-04-14T23:49:35.905Z,7.27
2019-04-14T23:52:06.917Z,7.90
2019-04-14T23:54:37.265Z,6.83
2019-04-14T23:57:08.558Z,6.70
2019-04-14T23:59:38.941Z,6.70
